This is the latest recevied weather packets stored in our database for station/object KG6LPP. If no packets are shown the sender has not sent any weather packets the latest 10 day(s).
| Time | Temp. | Humidity | Pressure | Rain* | Wind** | Luminosity | Snow |
|---|---|---|---|---|---|---|---|
| 1777929327 | 21.67° C | 21% | 999.8 hPa | 0 mm | - | 153 W/m² | - |
| 1777926620 | 21.11° C | 23% | 1001.3 hPa | 0 mm | - | 120 W/m² | - |
| 1777923016 | 20.56° C | 24% | 1002.1 hPa | 0 mm | - | 151 W/m² | - |
| 1777921215 | 19.44° C | 25% | 1002.1 hPa | 0 mm | - | 311 W/m² | - |
| 1777916708 | 18.89° C | 30% | 1003 hPa | 0 mm | - | 650 W/m² | - |
| 1777914905 | 17.78° C | 30% | 1003.2 hPa | 0 mm | - | 411 W/m² | - |
| 1777913106 | 17.78° C | 31% | 1003.3 hPa | 0 mm | - | 272 W/m² | - |
| 1777907760 | 15° C | 40% | 1004 hPa | 0 mm | - | 230 W/m² | - |
| 1777906863 | 15° C | 41% | 1004.1 hPa | 0 mm | - | 186 W/m² | - |
| 1777901403 | 12.22° C | 54% | 1004.5 hPa | 0 mm | - | 51 W/m² | - |
| 1777897859 | 11.11° C | 63% | 1004.5 hPa | 0 mm | - | 5 W/m² | - |
| 1777889756 | 11.11° C | 63% | 1004.2 hPa | 0 mm | - | 0 W/m² | - |
| 1777886154 | 11.67° C | 64% | 1004.5 hPa | 0 mm | - | 0 W/m² | - |
| 1777883449 | 12.22° C | 63% | 1005 hPa | 0 mm | - | 0 W/m² | - |
| 1777871738 | 13.33° C | 55% | 1007.1 hPa | 0 mm | - | 0 W/m² | - |
| 1777861825 | 13.89° C | 53% | 1007.3 hPa | 0 mm | - | 0 W/m² | - |
| 1777860923 | 14.44° C | 52% | 1007.3 hPa | 0 mm | - | 0 W/m² | - |
| 1777859117 | 15.56° C | 45% | 1007.3 hPa | 0 mm | - | 0 W/m² | - |
| 1777854602 | 18.89° C | 29% | 1007.4 hPa | 0 mm | - | 35 W/m² | - |
| 1777852864 | 19.44° C | 26% | 1007.5 hPa | 0 mm | - | 39 W/m² | - |
| 1777849270 | 19.44° C | 25% | 1008.4 hPa | 0 mm | - | 47 W/m² | - |
| 1777842936 | 20° C | 25% | 1009.9 hPa | 0 mm | - | 51 W/m² | - |
| 1777840227 | 18.89° C | 33% | 1011.1 hPa | 0 mm | - | 49 W/m² | - |
| 1777833011 | 16.11° C | 44% | 1013.1 hPa | 0 mm | - | 346 W/m² | - |
| 1777828505 | 15° C | 48% | 1014.2 hPa | 0 mm | - | 598 W/m² | - |
* Rain latest hour (hover to see other rain measurements)
** Current wind speed in m/s (hover to see current wind gust speed)